Time;durP1;ratioP1;P1;durP2;ratioP2;P2;SDS_P1;SDS_P2;PMS_P1;PMS_P2;Temp;Humidity;BMP_temperature;BMP_pressure;BME280_temperature;BME280_humidity;BME280_pressure;Samples;Min_cycle;Max_cycle;Signal;HPM_P1;HPM_P2
2021/11/26 00:02:11;;;;;;;48.55;22.20;;;;;;;;;;5136629;27;20188;-73
2021/11/26 00:04:38;;;;;;;35.42;19.50;;;;;;;;;;5136111;27;20287;-73
2021/11/26 00:07:05;;;;;;;35.13;19.83;;;;;;;;;;5135774;27;20196;-72
2021/11/26 00:09:34;;;;;;;50.92;21.13;;;;;;;;;;5135989;27;20233;-74
2021/11/26 00:12:01;;;;;;;34.72;16.88;;;;;;;;;;5135678;27;20284;-73
2021/11/26 00:14:31;;;;;;;47.25;21.63;;;;;;;;;;5135581;27;20192;-72
2021/11/26 00:16:59;;;;;;;43.22;19.48;;;;;;;;;;5134569;27;20216;-73
2021/11/26 00:19:27;;;;;;;42.55;21.60;;;;;;;;;;5136414;27;20189;-74
2021/11/26 00:21:54;;;;;;;42.67;20.70;;;;;;;;;;5135806;27;20284;-73
2021/11/26 00:24:22;;;;;;;48.13;21.75;;;;;;;;;;5135931;27;20244;-73
2021/11/26 00:26:51;;;;;;;46.45;19.60;;;;;;;;;;5135918;27;20205;-73
2021/11/26 00:29:18;;;;;;;40.63;18.80;;;;;;;;;;5135648;27;20279;-74
2021/11/26 00:31:46;;;;;;;40.67;19.00;;;;;;;;;;5135132;27;20696;-73
2021/11/26 00:34:13;;;;;;;50.53;24.15;;;;;;;;;;5135249;27;20668;-73
2021/11/26 00:36:40;;;;;;;41.63;18.02;;;;;;;;;;5135110;27;20739;-73
2021/11/26 00:39:08;;;;;;;48.75;20.85;;;;;;;;;;5135454;27;20287;-74
2021/11/26 00:41:35;;;;;;;40.72;21.02;;;;;;;;;;5135053;27;20192;-73
2021/11/26 00:44:04;;;;;;;42.90;20.00;;;;;;;;;;5135084;27;20287;-73
2021/11/26 00:46:32;;;;;;;38.70;18.75;;;;;;;;;;5135635;27;20279;-73
2021/11/26 00:48:59;;;;;;;44.38;19.48;;;;;;;;;;5135312;27;20228;-73
2021/11/26 00:51:30;;;;;;;54.50;22.85;;;;;;;;;;5135229;27;20228;-74
2021/11/26 00:53:57;;;;;;;47.42;21.75;;;;;;;;;;5135574;27;20181;-74
2021/11/26 00:56:24;;;;;;;50.38;22.25;;;;;;;;;;5135083;27;20276;-74
2021/11/26 00:58:52;;;;;;;46.58;22.42;;;;;;;;;;5134811;27;20283;-74
2021/11/26 01:01:20;;;;;;;64.20;25.10;;;;;;;;;;5135040;27;20723;-73
2021/11/26 01:03:48;;;;;;;47.05;21.90;;;;;;;;;;5135057;27;20341;-73
2021/11/26 01:06:15;;;;;;;54.03;24.73;;;;;;;;;;5134631;27;20289;-73
2021/11/26 01:08:42;;;;;;;67.28;26.40;;;;;;;;;;5135510;27;20222;-73
2021/11/26 01:11:09;;;;;;;53.63;23.92;;;;;;;;;;5134893;27;20283;-74
2021/11/26 01:13:37;;;;;;;67.40;26.35;;;;;;;;;;5134475;27;20287;-73
2021/11/26 01:16:04;;;;;;;56.65;24.30;;;;;;;;;;5134736;27;20245;-73
2021/11/26 01:18:32;;;;;;;62.08;26.88;;;;;;;;;;5134490;27;20235;-73
2021/11/26 01:21:00;;;;;;;68.30;28.67;;;;;;;;;;5134429;27;20239;-73
2021/11/26 01:23:27;;;;;;;62.80;27.80;;;;;;;;;;5134422;27;20214;-73
2021/11/26 01:25:55;;;;;;;65.18;25.73;;;;;;;;;;5135110;27;20285;-73
2021/11/26 01:28:22;;;;;;;73.20;29.15;;;;;;;;;;5134204;27;20279;-73
2021/11/26 01:30:50;;;;;;;59.10;26.15;;;;;;;;;;5134678;27;20296;-73
2021/11/26 01:33:19;;;;;;;76.32;30.77;;;;;;;;;;5133988;27;20220;-73
2021/11/26 01:35:51;;;;;;;87.43;32.05;;;;;;;;;;5134211;28;20226;-74
2021/11/26 01:38:18;;;;;;;74.18;28.90;;;;;;;;;;5134660;28;20632;-73
2021/11/26 01:40:46;;;;;;;79.45;30.85;;;;;;;;;;5134245;28;20669;-73
2021/11/26 01:43:15;;;;;;;69.78;31.83;;;;;;;;;;5134207;28;20283;-73
2021/11/26 01:45:43;;;;;;;74.45;31.15;;;;;;;;;;5134909;28;20228;-73
2021/11/26 01:48:10;;;;;;;70.97;30.38;;;;;;;;;;5134416;28;20284;-73
2021/11/26 01:50:38;;;;;;;75.05;32.70;;;;;;;;;;5134416;28;20288;-73
2021/11/26 01:53:06;;;;;;;76.03;31.45;;;;;;;;;;5134384;28;20242;-73
2021/11/26 01:55:34;;;;;;;79.75;32.60;;;;;;;;;;5134393;28;20313;-73
2021/11/26 01:58:01;;;;;;;80.25;31.77;;;;;;;;;;5134090;28;20228;-74
2021/11/26 02:00:30;;;;;;;85.38;32.47;;;;;;;;;;5134989;28;20192;-74
2021/11/26 02:02:57;;;;;;;76.18;31.48;;;;;;;;;;5134527;28;20190;-74
2021/11/26 02:05:24;;;;;;;88.07;32.17;;;;;;;;;;5134878;28;20620;-72
2021/11/26 02:07:52;;;;;;;84.45;33.47;;;;;;;;;;5134313;28;20237;-73
2021/11/26 02:10:20;;;;;;;76.25;24.65;;;;;;;;;;5134005;28;20284;-74
2021/11/26 02:12:48;;;;;;;69.65;30.55;;;;;;;;;;5133914;28;20284;-73
2021/11/26 02:15:17;;;;;;;77.07;29.73;;;;;;;;;;5134953;28;20281;-73
2021/11/26 02:17:44;;;;;;;75.50;30.60;;;;;;;;;;5133968;28;20205;-74
2021/11/26 02:20:17;;;;;;;74.55;31.00;;;;;;;;;;5133994;28;20195;-73
2021/11/26 02:22:44;;;;;;;63.13;30.92;;;;;;;;;;5133855;28;20291;-73
2021/11/26 02:25:12;;;;;;;53.97;27.98;;;;;;;;;;5134109;28;20284;-73
2021/11/26 02:27:39;;;;;;;61.88;26.73;;;;;;;;;;5134079;28;20205;-73
2021/11/26 02:30:14;;;;;;;70.72;28.83;;;;;;;;;;5133810;28;20288;-73
2021/11/26 02:32:41;;;;;;;75.57;29.20;;;;;;;;;;5134033;28;20225;-73
2021/11/26 02:35:09;;;;;;;61.90;27.75;;;;;;;;;;5134082;28;20281;-74
2021/11/26 02:37:38;;;;;;;69.00;27.15;;;;;;;;;;5134212;28;20302;-73
2021/11/26 02:40:05;;;;;;;59.33;28.58;;;;;;;;;;5135075;27;20737;-73
2021/11/26 02:42:33;;;;;;;64.15;25.88;;;;;;;;;;5138150;27;20595;-73
2021/11/26 02:45:00;;;;;;;59.42;28.40;;;;;;;;;;5138034;27;20279;-74
2021/11/26 02:47:27;;;;;;;70.72;29.00;;;;;;;;;;5137345;27;20287;-73
2021/11/26 02:49:54;;;;;;;67.30;29.70;;;;;;;;;;5137660;27;20277;-74
2021/11/26 02:52:22;;;;;;;66.50;27.30;;;;;;;;;;5137281;27;20201;-73
2021/11/26 02:54:52;;;;;;;71.53;29.85;;;;;;;;;;5137483;27;20233;-73
2021/11/26 02:57:19;;;;;;;63.10;28.92;;;;;;;;;;5137749;27;20205;-73
2021/11/26 02:59:46;;;;;;;61.20;29.25;;;;;;;;;;5137412;27;20595;-73
2021/11/26 03:02:13;;;;;;;62.17;27.02;;;;;;;;;;5137260;27;20288;-73
2021/11/26 03:04:41;;;;;;;61.58;28.30;;;;;;;;;;5137204;27;20229;-73
2021/11/26 03:07:09;;;;;;;68.97;30.58;;;;;;;;;;5137256;27;20283;-73
2021/11/26 03:09:36;;;;;;;71.85;30.83;;;;;;;;;;5138029;27;20281;-73
2021/11/26 03:12:05;;;;;;;67.15;29.35;;;;;;;;;;5137166;27;20276;-73
2021/11/26 03:14:33;;;;;;;68.72;32.22;;;;;;;;;;5137846;27;20227;-74
2021/11/26 03:17:00;;;;;;;63.22;29.25;;;;;;;;;;5137267;27;20212;-73
2021/11/26 03:19:27;;;;;;;68.55;27.05;;;;;;;;;;5137055;27;20559;-73
2021/11/26 03:21:55;;;;;;;73.82;30.90;;;;;;;;;;5136699;27;20188;-73
2021/11/26 03:24:22;;;;;;;68.32;29.75;;;;;;;;;;5136928;27;20219;-73
2021/11/26 03:26:49;;;;;;;71.10;32.35;;;;;;;;;;5137359;27;20279;-74
2021/11/26 03:29:18;;;;;;;78.20;31.00;;;;;;;;;;5136528;27;20203;-74
2021/11/26 03:31:45;;;;;;;67.75;29.80;;;;;;;;;;5136778;27;20257;-74
2021/11/26 03:34:13;;;;;;;67.20;30.02;;;;;;;;;;5136440;27;20197;-74
2021/11/26 03:36:40;;;;;;;69.05;28.60;;;;;;;;;;5136314;27;20270;-74
2021/11/26 03:39:07;;;;;;;65.85;30.70;;;;;;;;;;5136340;27;20665;-74
2021/11/26 03:41:35;;;;;;;62.50;30.33;;;;;;;;;;5136608;27;20200;-74
2021/11/26 03:44:02;;;;;;;72.75;32.25;;;;;;;;;;5136248;27;20289;-74
2021/11/26 03:46:30;;;;;;;62.15;29.65;;;;;;;;;;5136539;27;20280;-74
2021/11/26 03:48:58;;;;;;;79.03;31.65;;;;;;;;;;5136420;27;20276;-74
2021/11/26 03:51:25;;;;;;;69.78;32.95;;;;;;;;;;5136128;27;20286;-74
2021/11/26 03:53:52;;;;;;;68.43;30.58;;;;;;;;;;5136393;27;20224;-74
2021/11/26 03:56:19;;;;;;;65.40;29.50;;;;;;;;;;5135926;27;20251;-74
2021/11/26 03:58:47;;;;;;;67.50;30.77;;;;;;;;;;5135971;27;20284;-75
2021/11/26 04:01:14;;;;;;;72.63;30.55;;;;;;;;;;5136165;27;20193;-74
2021/11/26 04:03:43;;;;;;;73.05;31.63;;;;;;;;;;5136207;27;20628;-74
2021/11/26 04:06:10;;;;;;;73.85;32.00;;;;;;;;;;5136163;27;20616;-74
2021/11/26 04:08:37;;;;;;;70.75;31.48;;;;;;;;;;5136384;27;20619;-75
2021/11/26 04:11:05;;;;;;;68.97;30.83;;;;;;;;;;5135766;27;20287;-75
2021/11/26 04:13:32;;;;;;;72.88;31.63;;;;;;;;;;5136023;27;20618;-75
2021/11/26 04:16:04;;;;;;;62.03;28.25;;;;;;;;;;5135520;27;20263;-75
2021/11/26 04:18:33;;;;;;;75.07;31.50;;;;;;;;;;5136368;27;20194;-75
2021/11/26 04:21:02;;;;;;;63.88;30.08;;;;;;;;;;5135896;27;20554;-75
2021/11/26 04:23:29;;;;;;;63.45;30.75;;;;;;;;;;5135510;27;20202;-75
2021/11/26 04:25:57;;;;;;;62.53;29.88;;;;;;;;;;5135723;27;20290;-75
2021/11/26 04:28:24;;;;;;;74.53;32.45;;;;;;;;;;5135402;27;20253;-75
2021/11/26 04:30:52;;;;;;;72.93;30.92;;;;;;;;;;5136118;27;20242;-75
2021/11/26 04:33:19;;;;;;;66.20;31.45;;;;;;;;;;5135692;27;20254;-74
2021/11/26 04:35:47;;;;;;;65.13;29.35;;;;;;;;;;5135519;27;20620;-75
2021/11/26 04:38:16;;;;;;;60.40;28.25;;;;;;;;;;5135428;27;20247;-74
2021/11/26 04:40:44;;;;;;;63.03;29.77;;;;;;;;;;5135482;27;20625;-73
2021/11/26 04:43:11;;;;;;;67.40;30.30;;;;;;;;;;5135112;27;20229;-73
2021/11/26 04:45:38;;;;;;;60.47;32.15;;;;;;;;;;5135054;27;20219;-73
2021/11/26 04:48:06;;;;;;;61.05;27.85;;;;;;;;;;5135681;27;20611;-73
2021/11/26 04:50:34;;;;;;;68.28;32.35;;;;;;;;;;5135273;27;20305;-73
2021/11/26 04:53:01;;;;;;;62.00;31.35;;;;;;;;;;5134895;27;20283;-73
2021/11/26 04:55:29;;;;;;;59.15;28.10;;;;;;;;;;5135320;27;20297;-73
2021/11/26 04:57:57;;;;;;;56.63;27.70;;;;;;;;;;5134906;27;20543;-73
2021/11/26 05:00:24;;;;;;;56.83;30.17;;;;;;;;;;5134997;27;20228;-73
2021/11/26 05:02:52;;;;;;;59.00;31.35;;;;;;;;;;5134722;27;20200;-73
2021/11/26 05:05:19;;;;;;;64.60;29.25;;;;;;;;;;5134953;27;20193;-73
2021/11/26 05:07:46;;;;;;;53.28;26.58;;;;;;;;;;5135272;27;20287;-73
2021/11/26 05:10:16;;;;;;;59.28;26.88;;;;;;;;;;5134986;27;20256;-73
2021/11/26 05:12:47;;;;;;;58.35;26.65;;;;;;;;;;5134578;27;20188;-71
2021/11/26 05:15:16;;;;;;;57.22;27.40;;;;;;;;;;5135180;27;20638;-71
2021/11/26 05:17:43;;;;;;;53.00;25.10;;;;;;;;;;5134772;27;20218;-71
2021/11/26 05:20:11;;;;;;;50.38;25.65;;;;;;;;;;5134451;27;20706;-70
2021/11/26 05:22:38;;;;;;;56.05;27.23;;;;;;;;;;5134999;27;20621;-71
2021/11/26 05:25:06;;;;;;;52.03;27.00;;;;;;;;;;5133966;27;20271;-70
2021/11/26 05:27:33;;;;;;;47.92;23.92;;;;;;;;;;5135240;27;20283;-70
2021/11/26 05:30:02;;;;;;;49.22;23.73;;;;;;;;;;5134711;27;20280;-70
2021/11/26 05:32:29;;;;;;;41.38;23.10;;;;;;;;;;5134271;27;20225;-70
2021/11/26 05:34:57;;;;;;;49.47;25.88;;;;;;;;;;5134624;28;20284;-70
2021/11/26 05:37:24;;;;;;;50.60;26.35;;;;;;;;;;5134569;28;20641;-71
2021/11/26 05:39:51;;;;;;;50.42;24.10;;;;;;;;;;5134310;28;20716;-71
2021/11/26 05:42:18;;;;;;;47.13;27.00;;;;;;;;;;5134598;28;20284;-70
2021/11/26 05:44:46;;;;;;;57.78;28.25;;;;;;;;;;5134294;28;20247;-70
2021/11/26 05:47:14;;;;;;;49.67;25.10;;;;;;;;;;5134527;28;20367;-70
2021/11/26 05:49:41;;;;;;;47.00;26.00;;;;;;;;;;5134511;28;20196;-70
2021/11/26 05:52:09;;;;;;;51.95;27.92;;;;;;;;;;5134522;28;20232;-70
2021/11/26 05:54:37;;;;;;;48.58;27.25;;;;;;;;;;5134034;28;20284;-70
2021/11/26 05:57:04;;;;;;;50.83;27.15;;;;;;;;;;5134375;28;20633;-70
2021/11/26 05:59:31;;;;;;;52.28;28.95;;;;;;;;;;5134379;28;20279;-70
2021/11/26 06:01:59;;;;;;;47.50;28.55;;;;;;;;;;5134263;28;20289;-70
2021/11/26 06:04:30;;;;;;;51.63;28.75;;;;;;;;;;5133991;28;20207;-70
2021/11/26 06:06:57;;;;;;;57.30;30.67;;;;;;;;;;5134543;28;20199;-70
2021/11/26 06:09:24;;;;;;;50.88;27.15;;;;;;;;;;5134292;28;20288;-70
2021/11/26 06:11:51;;;;;;;55.40;27.85;;;;;;;;;;5133948;28;20279;-70
2021/11/26 06:14:19;;;;;;;46.88;27.75;;;;;;;;;;5134449;27;20281;-70
2021/11/26 06:16:46;;;;;;;48.30;27.42;;;;;;;;;;5138187;27;20301;-70
2021/11/26 06:19:13;;;;;;;55.50;27.73;;;;;;;;;;5138222;27;20544;-70
2021/11/26 06:21:42;;;;;;;47.80;31.00;;;;;;;;;;5138575;27;20201;-70
2021/11/26 06:24:09;;;;;;;56.75;28.25;;;;;;;;;;5138064;27;20277;-71
2021/11/26 06:26:36;;;;;;;59.53;29.48;;;;;;;;;;5137941;27;20275;-70
2021/11/26 06:29:04;;;;;;;54.72;29.65;;;;;;;;;;5137667;27;20261;-70
2021/11/26 06:31:31;;;;;;;47.92;26.55;;;;;;;;;;5137438;27;20285;-71
2021/11/26 06:33:58;;;;;;;44.15;26.92;;;;;;;;;;5138488;27;20278;-70
2021/11/26 06:36:25;;;;;;;49.20;27.20;;;;;;;;;;5137782;27;20284;-70
2021/11/26 06:38:54;;;;;;;52.05;32.42;;;;;;;;;;5137839;27;20672;-69
2021/11/26 06:41:21;;;;;;;44.17;28.80;;;;;;;;;;5137518;27;20288;-71
2021/11/26 06:43:48;;;;;;;48.00;28.70;;;;;;;;;;5138132;27;20282;-70
2021/11/26 06:46:16;;;;;;;43.28;28.15;;;;;;;;;;5137671;27;20720;-70
2021/11/26 06:48:43;;;;;;;38.30;23.17;;;;;;;;;;5137240;27;20286;-70
2021/11/26 06:51:10;;;;;;;42.30;25.88;;;;;;;;;;5137444;27;20289;-70
2021/11/26 06:53:38;;;;;;;42.47;25.17;;;;;;;;;;5137028;27;20228;-70
2021/11/26 06:56:06;;;;;;;52.15;28.13;;;;;;;;;;5137307;27;20284;-70
2021/11/26 06:58:34;;;;;;;41.10;26.15;;;;;;;;;;5137021;27;20305;-70
2021/11/26 07:01:01;;;;;;;42.20;22.90;;;;;;;;;;5137231;27;20283;-70
2021/11/26 07:03:28;;;;;;;45.15;24.42;;;;;;;;;;5137465;27;20295;-70
2021/11/26 07:05:55;;;;;;;34.83;20.40;;;;;;;;;;5136913;27;20192;-70
2021/11/26 07:08:24;;;;;;;37.40;21.95;;;;;;;;;;5137076;27;20292;-70
2021/11/26 07:10:52;;;;;;;33.50;22.33;;;;;;;;;;5137156;27;20238;-70
2021/11/26 07:13:20;;;;;;;41.17;21.50;;;;;;;;;;5137179;27;20283;-70
2021/11/26 07:15:47;;;;;;;32.58;22.58;;;;;;;;;;5137276;27;20346;-70
2021/11/26 07:18:15;;;;;;;29.80;20.02;;;;;;;;;;5136605;27;20209;-70
2021/11/26 07:20:43;;;;;;;34.13;21.33;;;;;;;;;;5137009;27;20279;-70
2021/11/26 07:23:10;;;;;;;32.63;21.13;;;;;;;;;;5136866;27;20280;-70
2021/11/26 07:25:37;;;;;;;32.13;20.90;;;;;;;;;;5136567;27;20299;-70
2021/11/26 07:28:05;;;;;;;31.20;20.95;;;;;;;;;;5136912;27;20299;-70
2021/11/26 07:30:33;;;;;;;35.83;20.17;;;;;;;;;;5136542;27;20703;-70
2021/11/26 07:33:01;;;;;;;26.27;20.05;;;;;;;;;;5136415;27;20228;-70
2021/11/26 07:35:28;;;;;;;28.80;20.83;;;;;;;;;;5136965;27;20236;-70
2021/11/26 07:37:55;;;;;;;29.25;20.13;;;;;;;;;;5136264;27;20306;-70
2021/11/26 07:40:22;;;;;;;26.00;17.17;;;;;;;;;;5136616;27;20288;-70
2021/11/26 07:42:50;;;;;;;24.38;16.20;;;;;;;;;;5136664;27;20608;-70
2021/11/26 07:45:17;;;;;;;25.30;15.25;;;;;;;;;;5136531;27;20226;-70
2021/11/26 07:47:46;;;;;;;26.40;16.70;;;;;;;;;;5136479;27;20284;-70
2021/11/26 07:50:13;;;;;;;23.48;14.75;;;;;;;;;;5136427;27;20287;-70
2021/11/26 07:52:42;;;;;;;20.52;14.90;;;;;;;;;;5135926;27;20311;-70
2021/11/26 07:55:09;;;;;;;19.13;13.93;;;;;;;;;;5136750;27;20197;-69
2021/11/26 07:57:37;;;;;;;30.00;16.17;;;;;;;;;;5136467;27;20305;-69
2021/11/26 08:00:05;;;;;;;17.73;13.52;;;;;;;;;;5136506;27;20194;-69
2021/11/26 08:02:32;;;;;;;17.08;13.88;;;;;;;;;;5135944;27;20618;-70
2021/11/26 08:05:01;;;;;;;18.02;13.00;;;;;;;;;;5135806;27;20199;-70
2021/11/26 08:07:29;;;;;;;20.25;14.45;;;;;;;;;;5136380;27;20251;-69
2021/11/26 08:09:57;;;;;;;19.85;13.88;;;;;;;;;;5136079;27;20191;-69
2021/11/26 08:12:24;;;;;;;18.10;12.75;;;;;;;;;;5135982;27;20624;-70
2021/11/26 08:14:53;;;;;;;17.33;12.82;;;;;;;;;;5136407;27;20199;-70
2021/11/26 08:17:20;;;;;;;19.88;14.10;;;;;;;;;;5136083;27;20192;-69
2021/11/26 08:19:47;;;;;;;17.75;13.20;;;;;;;;;;5136317;27;20230;-70
2021/11/26 08:22:17;;;;;;;18.60;14.02;;;;;;;;;;5135512;27;20285;-69
2021/11/26 08:24:44;;;;;;;23.13;14.13;;;;;;;;;;5135555;27;20689;-69
2021/11/26 08:27:12;;;;;;;19.70;13.75;;;;;;;;;;5135357;27;20288;-69
2021/11/26 08:29:39;;;;;;;19.90;14.10;;;;;;;;;;5135518;27;20233;-69
2021/11/26 08:32:06;;;;;;;18.25;14.95;;;;;;;;;;5135442;27;20309;-69
2021/11/26 08:34:34;;;;;;;19.17;14.02;;;;;;;;;;5135493;27;20206;-69
2021/11/26 08:37:01;;;;;;;19.50;13.57;;;;;;;;;;5134964;27;20241;-69
2021/11/26 08:39:30;;;;;;;15.38;12.27;;;;;;;;;;5134885;27;20311;-69
2021/11/26 08:41:57;;;;;;;18.98;11.80;;;;;;;;;;5135636;27;20261;-70
2021/11/26 08:44:24;;;;;;;17.17;11.77;;;;;;;;;;5134982;27;20743;-69
2021/11/26 08:46:52;;;;;;;17.67;12.85;;;;;;;;;;5135024;27;20243;-69
2021/11/26 08:49:19;;;;;;;15.48;10.82;;;;;;;;;;5134780;27;20236;-70
2021/11/26 08:51:47;;;;;;;17.13;11.45;;;;;;;;;;5135071;27;20223;-70
2021/11/26 08:54:15;;;;;;;19.77;13.10;;;;;;;;;;5135197;27;20585;-69
2021/11/26 08:56:45;;;;;;;16.95;12.10;;;;;;;;;;5135973;27;20192;-70
2021/11/26 08:59:12;;;;;;;16.10;12.45;;;;;;;;;;5135034;27;20209;-70
2021/11/26 09:01:39;;;;;;;15.80;12.05;;;;;;;;;;5135140;27;20717;-69
2021/11/26 09:04:07;;;;;;;18.73;11.68;;;;;;;;;;5135303;27;20224;-69
2021/11/26 09:06:34;;;;;;;15.52;12.50;;;;;;;;;;5134675;27;20192;-69
2021/11/26 09:09:02;;;;;;;21.95;13.65;;;;;;;;;;5134803;27;20292;-69
2021/11/26 09:11:29;;;;;;;15.95;12.70;;;;;;;;;;5134846;27;20257;-70
2021/11/26 09:13:59;;;;;;;23.52;14.90;;;;;;;;;;5134496;27;20281;-70
2021/11/26 09:16:26;;;;;;;22.90;14.57;;;;;;;;;;5134602;27;20183;-70
2021/11/26 09:18:53;;;;;;;26.75;17.50;;;;;;;;;;5134814;27;20247;-69
2021/11/26 09:21:21;;;;;;;25.65;16.83;;;;;;;;;;5134920;27;20233;-70
2021/11/26 09:23:49;;;;;;;23.50;16.17;;;;;;;;;;5134621;27;20269;-70
2021/11/26 09:26:16;;;;;;;29.42;18.35;;;;;;;;;;5134395;27;20279;-69
2021/11/26 09:28:43;;;;;;;29.98;19.63;;;;;;;;;;5134625;27;20230;-70
2021/11/26 09:31:12;;;;;;;25.20;18.30;;;;;;;;;;5134769;27;20226;-70
2021/11/26 09:33:39;;;;;;;26.45;17.65;;;;;;;;;;5134532;27;20631;-69
2021/11/26 09:36:08;;;;;;;32.50;19.00;;;;;;;;;;5134210;27;20228;-70
2021/11/26 09:38:36;;;;;;;32.40;19.55;;;;;;;;;;5134654;28;20214;-70
2021/11/26 09:41:04;;;;;;;31.35;18.67;;;;;;;;;;5135019;28;20281;-70
2021/11/26 09:43:31;;;;;;;32.55;18.92;;;;;;;;;;5134119;28;20288;-70
2021/11/26 09:46:02;;;;;;;41.78;23.23;;;;;;;;;;5134150;28;20280;-70
2021/11/26 09:48:31;;;;;;;30.48;21.67;;;;;;;;;;5135044;27;20188;-70
2021/11/26 09:50:59;;;;;;;33.92;21.90;;;;;;;;;;5138360;27;20277;-70
2021/11/26 09:53:27;;;;;;;39.05;23.63;;;;;;;;;;5138720;27;20280;-70
2021/11/26 09:55:55;;;;;;;37.17;21.95;;;;;;;;;;5138586;27;20205;-69
2021/11/26 09:58:23;;;;;;;30.60;21.05;;;;;;;;;;5138823;27;20209;-69
2021/11/26 10:00:51;;;;;;;32.78;21.65;;;;;;;;;;5138201;27;20200;-69
2021/11/26 10:03:19;;;;;;;33.47;21.23;;;;;;;;;;5138093;27;20194;-69
2021/11/26 10:05:47;;;;;;;41.13;22.60;;;;;;;;;;5138774;27;20227;-70
2021/11/26 10:08:22;;;;;;;38.38;21.98;;;;;;;;;;5138396;27;20232;-70
2021/11/26 10:10:49;;;;;;;47.55;23.27;;;;;;;;;;5138356;27;20184;-70
2021/11/26 10:13:17;;;;;;;42.05;23.58;;;;;;;;;;5138300;27;20230;-70
2021/11/26 10:15:46;;;;;;;37.95;22.80;;;;;;;;;;5137980;27;20198;-70
2021/11/26 10:18:15;;;;;;;40.67;25.02;;;;;;;;;;5138092;27;20307;-70
2021/11/26 10:20:58;;;;;;;34.40;22.73;;;;;;;;;;5138438;27;20538;-70
2021/11/26 10:23:27;;;;;;;45.72;23.23;;;;;;;;;;5138137;27;20203;-69
2021/11/26 10:25:54;;;;;;;27.85;18.42;;;;;;;;;;5137811;27;20202;-70
2021/11/26 10:28:22;;;;;;;37.13;23.10;;;;;;;;;;5138004;27;20204;-70
2021/11/26 10:30:51;;;;;;;37.33;23.25;;;;;;;;;;5137637;27;20290;-70
2021/11/26 10:33:22;;;;;;;42.35;22.08;;;;;;;;;;5137602;27;20292;-70
2021/11/26 10:35:51;;;;;;;35.83;21.25;;;;;;;;;;5137447;27;20655;-70
2021/11/26 10:38:21;;;;;;;39.10;23.13;;;;;;;;;;5137407;27;20212;-70
2021/11/26 10:40:51;;;;;;;37.00;21.20;;;;;;;;;;5137653;27;20291;-70
2021/11/26 10:43:19;;;;;;;36.78;22.98;;;;;;;;;;5137876;27;20189;-70
2021/11/26 10:46:03;;;;;;;34.47;21.45;;;;;;;;;;5137390;27;20228;-70
2021/11/26 10:48:51;;;;;;;37.95;22.98;;;;;;;;;;5137771;27;20239;-70
2021/11/26 10:51:53;;;;;;;38.28;21.27;;;;;;;;;;5137205;27;20242;-70
2021/11/26 11:00:03;;;;;;;39.08;22.52;;;;;;;;;;5136853;27;20217;-70
2021/11/26 11:02:34;;;;;;;37.00;21.83;;;;;;;;;;5137062;27;20203;-70
2021/11/26 11:05:01;;;;;;;42.60;21.75;;;;;;;;;;5137133;27;20730;-70
2021/11/26 11:07:38;;;;;;;36.22;21.27;;;;;;;;;;5136920;27;20236;-70
2021/11/26 11:10:08;;;;;;;31.10;20.75;;;;;;;;;;5136986;27;20274;-70
2021/11/26 11:12:36;;;;;;;48.85;19.30;;;;;;;;;;5137458;27;20193;-70
2021/11/26 11:15:05;;;;;;;34.58;19.48;;;;;;;;;;5136747;27;20232;-69
2021/11/26 11:17:32;;;;;;;28.98;17.58;;;;;;;;;;5137020;27;20281;-70
2021/11/26 11:20:01;;;;;;;29.42;18.40;;;;;;;;;;5136996;27;20248;-70
2021/11/26 11:22:29;;;;;;;28.23;18.85;;;;;;;;;;5136907;27;20236;-70
2021/11/26 11:24:56;;;;;;;30.88;16.33;;;;;;;;;;5137057;27;20242;-70
2021/11/26 11:27:25;;;;;;;29.60;17.17;;;;;;;;;;5136882;27;20247;-70
2021/11/26 11:29:52;;;;;;;24.63;15.95;;;;;;;;;;5136926;27;20280;-70
2021/11/26 11:32:19;;;;;;;23.38;15.05;;;;;;;;;;5136436;27;20317;-70
2021/11/26 11:34:47;;;;;;;23.20;14.35;;;;;;;;;;5136787;27;20586;-70
2021/11/26 11:37:18;;;;;;;17.30;13.15;;;;;;;;;;5136413;27;20685;-71
2021/11/26 11:39:46;;;;;;;19.23;14.68;;;;;;;;;;5136718;27;20231;-70
2021/11/26 11:42:13;;;;;;;26.38;15.25;;;;;;;;;;5137065;27;20221;-70
2021/11/26 11:44:44;;;;;;;19.38;14.10;;;;;;;;;;5137101;27;20590;-70
2021/11/26 11:47:18;;;;;;;22.92;15.30;;;;;;;;;;5136139;27;20258;-70
2021/11/26 11:49:46;;;;;;;25.75;15.05;;;;;;;;;;5136821;27;20234;-70
2021/11/26 11:52:14;;;;;;;27.00;15.07;;;;;;;;;;5136430;27;20254;-70
2021/11/26 11:54:43;;;;;;;23.98;14.70;;;;;;;;;;5136385;27;20244;-70
2021/11/26 11:57:21;;;;;;;17.90;14.65;;;;;;;;;;5136808;27;20285;-70
2021/11/26 11:59:50;;;;;;;16.92;12.13;;;;;;;;;;5136553;27;20316;-70
2021/11/26 12:02:24;;;;;;;25.95;15.98;;;;;;;;;;5136110;27;20202;-70
2021/11/26 12:04:53;;;;;;;20.38;13.05;;;;;;;;;;5136755;27;20245;-70
2021/11/26 12:07:25;;;;;;;26.25;11.98;;;;;;;;;;5136355;27;20248;-70
2021/11/26 12:10:01;;;;;;;16.45;12.32;;;;;;;;;;5136017;27;20204;-70
2021/11/26 12:12:29;;;;;;;14.95;10.40;;;;;;;;;;5134558;27;20666;-70
2021/11/26 12:14:58;;;;;;;19.50;12.10;;;;;;;;;;5135586;27;20224;-71
2021/11/26 12:17:31;;;;;;;16.77;11.07;;;;;;;;;;5135598;27;20665;-71
2021/11/26 12:20:00;;;;;;;21.13;11.27;;;;;;;;;;5136402;27;20211;-71
2021/11/26 12:22:32;;;;;;;15.18;10.20;;;;;;;;;;5135902;27;20198;-71
2021/11/26 12:25:00;;;;;;;15.00;10.38;;;;;;;;;;5136109;27;20187;-71
2021/11/26 12:27:37;;;;;;;14.57;10.32;;;;;;;;;;5135815;27;20250;-71
2021/11/26 12:30:16;;;;;;;14.93;9.70;;;;;;;;;;5135371;27;20239;-70
2021/11/26 12:32:43;;;;;;;15.02;10.90;;;;;;;;;;5135562;27;20620;-70
2021/11/26 12:35:11;;;;;;;17.58;12.00;;;;;;;;;;5135142;27;20239;-70
2021/11/26 12:37:38;;;;;;;14.73;10.25;;;;;;;;;;5135445;27;20283;-70
2021/11/26 12:40:09;;;;;;;12.07;9.00;;;;;;;;;;5134957;27;20281;-70
2021/11/26 12:42:36;;;;;;;16.10;10.45;;;;;;;;;;5135600;27;20263;-70
2021/11/26 12:45:06;;;;;;;18.55;9.75;;;;;;;;;;5135400;27;20244;-70
2021/11/26 12:47:39;;;;;;;14.82;9.23;;;;;;;;;;5135023;27;20201;-70
2021/11/26 12:52:53;;;;;;;16.77;9.35;;;;;;;;;;5135244;27;20259;-70
2021/11/26 12:55:20;;;;;;;16.95;9.45;;;;;;;;;;5134828;27;20195;-71
2021/11/26 12:57:52;;;;;;;19.88;9.55;;;;;;;;;;5135008;27;20196;-70
2021/11/26 13:00:20;;;;;;;11.65;8.30;;;;;;;;;;5134701;27;20218;-70
2021/11/26 13:02:48;;;;;;;23.08;9.90;;;;;;;;;;5135241;27;20188;-70
2021/11/26 13:05:17;;;;;;;17.25;8.68;;;;;;;;;;5134948;27;20281;-78
2021/11/26 13:07:45;;;;;;;13.65;8.45;;;;;;;;;;5135045;27;20248;-70
2021/11/26 13:10:13;;;;;;;18.67;8.45;;;;;;;;;;5134536;27;20233;-71
2021/11/26 13:12:42;;;;;;;13.27;7.40;;;;;;;;;;5134931;27;20289;-71
2021/11/26 13:15:11;;;;;;;16.23;8.02;;;;;;;;;;5134756;27;20293;-70
2021/11/26 13:17:39;;;;;;;19.13;8.52;;;;;;;;;;5128345;27;20277;-71
2021/11/26 13:20:13;;;;;;;18.45;6.80;;;;;;;;;;5114395;28;20257;-71
2021/11/26 13:22:41;;;;;;;16.10;7.32;;;;;;;;;;5113937;28;20186;-72
2021/11/26 13:25:09;;;;;;;11.35;5.65;;;;;;;;;;5113980;28;20222;-71
2021/11/26 13:27:46;;;;;;;14.25;7.03;;;;;;;;;;5114145;28;20194;-71
2021/11/26 13:30:17;;;;;;;17.85;6.30;;;;;;;;;;5113530;28;20190;-71
2021/11/26 13:32:45;;;;;;;11.90;6.18;;;;;;;;;;5113270;28;20265;-72
2021/11/26 13:35:25;;;;;;;11.27;6.10;;;;;;;;;;5114109;28;20247;-71
2021/11/26 13:37:52;;;;;;;20.40;12.32;;;;;;;;;;5113922;28;20273;-72
2021/11/26 13:40:20;;;;;;;17.02;10.20;;;;;;;;;;5113883;28;20637;-71
2021/11/26 13:42:59;;;;;;;12.48;6.43;;;;;;;;;;5113551;28;20644;-71
2021/11/26 13:45:37;;;;;;;11.40;7.18;;;;;;;;;;5113705;28;20184;-71
2021/11/26 13:48:04;;;;;;;11.30;6.00;;;;;;;;;;5113555;28;20190;-71
2021/11/26 13:50:34;;;;;;;17.08;11.10;;;;;;;;;;5114452;28;20299;-72
2021/11/26 13:53:01;;;;;;;16.48;8.25;;;;;;;;;;5114358;28;20230;-71
2021/11/26 13:55:29;;;;;;;14.82;7.10;;;;;;;;;;5113134;28;20244;-71
2021/11/26 13:58:06;;;;;;;9.90;5.80;;;;;;;;;;5113413;28;20644;-71
2021/11/26 14:00:40;;;;;;;8.85;5.95;;;;;;;;;;5114290;28;20207;-70
2021/11/26 14:03:07;;;;;;;8.93;5.82;;;;;;;;;;5113304;28;20289;-70
2021/11/26 14:05:37;;;;;;;8.52;5.32;;;;;;;;;;5113632;28;20227;-70
2021/11/26 14:08:06;;;;;;;11.88;5.53;;;;;;;;;;5113675;28;20338;-72
2021/11/26 14:10:51;;;;;;;12.55;5.22;;;;;;;;;;5113866;28;20583;-71
2021/11/26 14:13:19;;;;;;;7.57;4.50;;;;;;;;;;5113419;28;20203;-72
2021/11/26 14:15:47;;;;;;;7.55;5.53;;;;;;;;;;5113348;28;20194;-71
2021/11/26 14:18:15;;;;;;;9.90;5.75;;;;;;;;;;5113211;28;20198;-72
2021/11/26 14:20:44;;;;;;;15.65;4.75;;;;;;;;;;5113601;28;20313;-71
2021/11/26 14:23:12;;;;;;;7.07;5.05;;;;;;;;;;5113269;28;20193;-71
2021/11/26 14:25:40;;;;;;;7.10;5.35;;;;;;;;;;5113272;28;20266;-72
2021/11/26 14:28:12;;;;;;;11.23;4.43;;;;;;;;;;5113186;28;20234;-71
2021/11/26 14:30:39;;;;;;;8.80;4.22;;;;;;;;;;5113799;28;20253;-71
2021/11/26 14:33:08;;;;;;;10.25;4.32;;;;;;;;;;5113133;28;20262;-70
2021/11/26 14:35:36;;;;;;;9.10;4.50;;;;;;;;;;5114255;28;20239;-70